sensor_id;sensor_type;location;lat;lon;timestamp;P1;durP1;ratioP1;P2;durP2;ratioP2
6823;SDS011;58633;49.470;11.004;2024-02-21T00:00:43;9.37;;;3.50;;
6823;SDS011;58633;49.470;11.004;2024-02-21T00:03:08;10.60;;;3.10;;
6823;SDS011;58633;49.470;11.004;2024-02-21T00:05:34;8.77;;;3.03;;
6823;SDS011;58633;49.470;11.004;2024-02-21T00:07:59;7.93;;;3.30;;
6823;SDS011;58633;49.470;11.004;2024-02-21T00:10:25;11.33;;;3.53;;
6823;SDS011;58633;49.470;11.004;2024-02-21T00:12:51;10.03;;;3.53;;
6823;SDS011;58633;49.470;11.004;2024-02-21T00:15:17;12.63;;;3.43;;
6823;SDS011;58633;49.470;11.004;2024-02-21T00:17:43;8.13;;;3.30;;
6823;SDS011;58633;49.470;11.004;2024-02-21T00:20:09;12.63;;;3.53;;
6823;SDS011;58633;49.470;11.004;2024-02-21T00:22:35;8.60;;;3.27;;
6823;SDS011;58633;49.470;11.004;2024-02-21T00:25:01;7.87;;;2.93;;
6823;SDS011;58633;49.470;11.004;2024-02-21T00:27:27;10.90;;;3.53;;
6823;SDS011;58633;49.470;11.004;2024-02-21T00:29:53;13.00;;;3.80;;
6823;SDS011;58633;49.470;11.004;2024-02-21T00:32:18;9.03;;;3.13;;
6823;SDS011;58633;49.470;11.004;2024-02-21T00:34:44;10.00;;;3.60;;
6823;SDS011;58633;49.470;11.004;2024-02-21T00:37:09;10.00;;;3.13;;
6823;SDS011;58633;49.470;11.004;2024-02-21T00:39:35;10.07;;;3.40;;
6823;SDS011;58633;49.470;11.004;2024-02-21T00:42:01;14.77;;;3.53;;
6823;SDS011;58633;49.470;11.004;2024-02-21T00:44:27;9.37;;;3.27;;
6823;SDS011;58633;49.470;11.004;2024-02-21T00:46:53;12.17;;;3.90;;
6823;SDS011;58633;49.470;11.004;2024-02-21T00:49:18;9.43;;;3.90;;
6823;SDS011;58633;49.470;11.004;2024-02-21T00:51:44;7.47;;;3.23;;
6823;SDS011;58633;49.470;11.004;2024-02-21T00:54:09;7.63;;;3.40;;
6823;SDS011;58633;49.470;11.004;2024-02-21T00:56:35;13.47;;;3.80;;
6823;SDS011;58633;49.470;11.004;2024-02-21T00:59:00;8.97;;;3.27;;
6823;SDS011;58633;49.470;11.004;2024-02-21T01:01:26;7.23;;;3.53;;
6823;SDS011;58633;49.470;11.004;2024-02-21T01:03:51;8.73;;;3.10;;
6823;SDS011;58633;49.470;11.004;2024-02-21T01:06:18;9.93;;;3.40;;
6823;SDS011;58633;49.470;11.004;2024-02-21T01:08:45;9.67;;;3.50;;
6823;SDS011;58633;49.470;11.004;2024-02-21T01:11:12;10.40;;;3.93;;
6823;SDS011;58633;49.470;11.004;2024-02-21T01:13:38;13.20;;;3.67;;
6823;SDS011;58633;49.470;11.004;2024-02-21T01:16:04;8.43;;;3.63;;
6823;SDS011;58633;49.470;11.004;2024-02-21T01:18:31;10.23;;;3.30;;
6823;SDS011;58633;49.470;11.004;2024-02-21T01:21:01;9.97;;;3.60;;
6823;SDS011;58633;49.470;11.004;2024-02-21T01:23:27;11.93;;;3.70;;
6823;SDS011;58633;49.470;11.004;2024-02-21T01:25:53;8.50;;;3.20;;
6823;SDS011;58633;49.470;11.004;2024-02-21T01:28:20;9.07;;;3.33;;
6823;SDS011;58633;49.470;11.004;2024-02-21T01:30:45;9.07;;;3.13;;
6823;SDS011;58633;49.470;11.004;2024-02-21T01:33:11;10.77;;;3.47;;
6823;SDS011;58633;49.470;11.004;2024-02-21T01:35:36;10.27;;;3.77;;
6823;SDS011;58633;49.470;11.004;2024-02-21T01:38:02;7.73;;;3.70;;
6823;SDS011;58633;49.470;11.004;2024-02-21T01:40:27;9.50;;;2.97;;
6823;SDS011;58633;49.470;11.004;2024-02-21T01:42:54;11.93;;;3.70;;
6823;SDS011;58633;49.470;11.004;2024-02-21T01:45:20;6.57;;;3.43;;
6823;SDS011;58633;49.470;11.004;2024-02-21T01:47:47;7.73;;;3.80;;
6823;SDS011;58633;49.470;11.004;2024-02-21T01:50:13;7.00;;;3.50;;
6823;SDS011;58633;49.470;11.004;2024-02-21T01:52:40;7.27;;;3.40;;
6823;SDS011;58633;49.470;11.004;2024-02-21T01:55:08;11.63;;;3.50;;
6823;SDS011;58633;49.470;11.004;2024-02-21T01:57:35;6.37;;;3.03;;
6823;SDS011;58633;49.470;11.004;2024-02-21T02:00:01;10.27;;;3.20;;
6823;SDS011;58633;49.470;11.004;2024-02-21T02:02:26;8.13;;;3.40;;
6823;SDS011;58633;49.470;11.004;2024-02-21T02:04:52;10.60;;;3.10;;
6823;SDS011;58633;49.470;11.004;2024-02-21T02:07:18;10.77;;;3.40;;
6823;SDS011;58633;49.470;11.004;2024-02-21T02:09:43;13.70;;;3.63;;
6823;SDS011;58633;49.470;11.004;2024-02-21T02:12:09;7.93;;;2.70;;
6823;SDS011;58633;49.470;11.004;2024-02-21T02:14:34;9.03;;;4.77;;
6823;SDS011;58633;49.470;11.004;2024-02-21T02:17:00;9.07;;;3.47;;
6823;SDS011;58633;49.470;11.004;2024-02-21T02:19:25;10.93;;;3.57;;
6823;SDS011;58633;49.470;11.004;2024-02-21T02:21:53;12.10;;;3.50;;
6823;SDS011;58633;49.470;11.004;2024-02-21T02:24:24;11.53;;;3.60;;
6823;SDS011;58633;49.470;11.004;2024-02-21T02:26:52;8.80;;;3.40;;
6823;SDS011;58633;49.470;11.004;2024-02-21T02:29:18;11.10;;;3.40;;
6823;SDS011;58633;49.470;11.004;2024-02-21T02:31:44;11.70;;;3.30;;
6823;SDS011;58633;49.470;11.004;2024-02-21T02:34:09;12.93;;;3.20;;
6823;SDS011;58633;49.470;11.004;2024-02-21T02:36:35;11.80;;;3.23;;
6823;SDS011;58633;49.470;11.004;2024-02-21T02:39:01;12.17;;;3.90;;
6823;SDS011;58633;49.470;11.004;2024-02-21T02:41:26;10.30;;;3.50;;
6823;SDS011;58633;49.470;11.004;2024-02-21T02:43:52;10.03;;;2.87;;
6823;SDS011;58633;49.470;11.004;2024-02-21T02:46:17;8.17;;;3.27;;
6823;SDS011;58633;49.470;11.004;2024-02-21T02:48:43;8.67;;;3.40;;
6823;SDS011;58633;49.470;11.004;2024-02-21T02:51:09;16.83;;;3.83;;
6823;SDS011;58633;49.470;11.004;2024-02-21T02:53:35;7.70;;;3.23;;
6823;SDS011;58633;49.470;11.004;2024-02-21T02:56:01;9.13;;;3.50;;
6823;SDS011;58633;49.470;11.004;2024-02-21T02:58:26;11.23;;;3.43;;
6823;SDS011;58633;49.470;11.004;2024-02-21T03:00:52;14.13;;;2.87;;
6823;SDS011;58633;49.470;11.004;2024-02-21T03:03:17;9.70;;;3.47;;
6823;SDS011;58633;49.470;11.004;2024-02-21T03:05:43;10.80;;;4.40;;
6823;SDS011;58633;49.470;11.004;2024-02-21T03:08:09;10.27;;;3.33;;
6823;SDS011;58633;49.470;11.004;2024-02-21T03:10:34;8.27;;;3.00;;
6823;SDS011;58633;49.470;11.004;2024-02-21T03:13:00;9.40;;;3.20;;
6823;SDS011;58633;49.470;11.004;2024-02-21T03:15:26;7.33;;;3.00;;
6823;SDS011;58633;49.470;11.004;2024-02-21T03:17:51;12.37;;;3.00;;
6823;SDS011;58633;49.470;11.004;2024-02-21T03:20:17;8.33;;;3.10;;
6823;SDS011;58633;49.470;11.004;2024-02-21T03:22:44;10.83;;;3.53;;
6823;SDS011;58633;49.470;11.004;2024-02-21T03:25:10;9.03;;;2.93;;
6823;SDS011;58633;49.470;11.004;2024-02-21T03:27:36;9.53;;;3.33;;
6823;SDS011;58633;49.470;11.004;2024-02-21T03:30:01;9.67;;;3.10;;
6823;SDS011;58633;49.470;11.004;2024-02-21T03:32:27;8.33;;;3.00;;
6823;SDS011;58633;49.470;11.004;2024-02-21T03:34:53;10.27;;;3.07;;
6823;SDS011;58633;49.470;11.004;2024-02-21T03:37:19;9.80;;;3.30;;
6823;SDS011;58633;49.470;11.004;2024-02-21T03:39:45;9.57;;;3.13;;
6823;SDS011;58633;49.470;11.004;2024-02-21T03:42:10;12.17;;;3.40;;
6823;SDS011;58633;49.470;11.004;2024-02-21T03:44:36;9.50;;;3.07;;
6823;SDS011;58633;49.470;11.004;2024-02-21T03:47:02;9.90;;;3.10;;
6823;SDS011;58633;49.470;11.004;2024-02-21T03:49:27;7.77;;;3.17;;
6823;SDS011;58633;49.470;11.004;2024-02-21T03:51:53;9.60;;;3.10;;
6823;SDS011;58633;49.470;11.004;2024-02-21T03:54:19;6.57;;;3.43;;
6823;SDS011;58633;49.470;11.004;2024-02-21T03:56:45;7.07;;;2.77;;
6823;SDS011;58633;49.470;11.004;2024-02-21T03:59:12;9.57;;;3.50;;
6823;SDS011;58633;49.470;11.004;2024-02-21T04:01:38;12.33;;;3.10;;
6823;SDS011;58633;49.470;11.004;2024-02-21T04:04:04;11.97;;;3.03;;
6823;SDS011;58633;49.470;11.004;2024-02-21T04:06:29;8.30;;;3.20;;
6823;SDS011;58633;49.470;11.004;2024-02-21T04:08:55;7.53;;;2.83;;
6823;SDS011;58633;49.470;11.004;2024-02-21T04:11:21;7.87;;;3.03;;
6823;SDS011;58633;49.470;11.004;2024-02-21T04:13:47;9.67;;;3.23;;
6823;SDS011;58633;49.470;11.004;2024-02-21T04:16:16;8.97;;;3.10;;
6823;SDS011;58633;49.470;11.004;2024-02-21T04:18:42;7.17;;;2.87;;
6823;SDS011;58633;49.470;11.004;2024-02-21T04:21:08;8.93;;;3.03;;
6823;SDS011;58633;49.470;11.004;2024-02-21T04:23:34;5.87;;;2.87;;
6823;SDS011;58633;49.470;11.004;2024-02-21T04:26:00;8.60;;;2.93;;
6823;SDS011;58633;49.470;11.004;2024-02-21T04:28:26;9.03;;;3.23;;
6823;SDS011;58633;49.470;11.004;2024-02-21T04:30:51;10.20;;;3.00;;
6823;SDS011;58633;49.470;11.004;2024-02-21T04:33:17;9.33;;;3.60;;
6823;SDS011;58633;49.470;11.004;2024-02-21T04:35:43;6.90;;;3.10;;
6823;SDS011;58633;49.470;11.004;2024-02-21T04:38:08;9.13;;;3.13;;
6823;SDS011;58633;49.470;11.004;2024-02-21T04:40:34;13.67;;;3.47;;
6823;SDS011;58633;49.470;11.004;2024-02-21T04:43:00;9.43;;;3.37;;
6823;SDS011;58633;49.470;11.004;2024-02-21T04:45:25;9.50;;;3.30;;
6823;SDS011;58633;49.470;11.004;2024-02-21T04:47:51;5.03;;;2.70;;
6823;SDS011;58633;49.470;11.004;2024-02-21T04:50:16;7.83;;;3.10;;
6823;SDS011;58633;49.470;11.004;2024-02-21T04:52:42;8.13;;;3.17;;
6823;SDS011;58633;49.470;11.004;2024-02-21T04:55:08;8.63;;;3.40;;
6823;SDS011;58633;49.470;11.004;2024-02-21T04:57:34;11.17;;;4.00;;
6823;SDS011;58633;49.470;11.004;2024-02-21T04:59:59;5.63;;;3.03;;
6823;SDS011;58633;49.470;11.004;2024-02-21T05:02:25;10.67;;;3.40;;
6823;SDS011;58633;49.470;11.004;2024-02-21T05:04:51;11.50;;;3.60;;
6823;SDS011;58633;49.470;11.004;2024-02-21T05:07:17;8.33;;;3.30;;
6823;SDS011;58633;49.470;11.004;2024-02-21T05:09:44;8.47;;;3.30;;
6823;SDS011;58633;49.470;11.004;2024-02-21T05:12:10;8.53;;;3.33;;
6823;SDS011;58633;49.470;11.004;2024-02-21T05:14:36;12.33;;;3.63;;
6823;SDS011;58633;49.470;11.004;2024-02-21T05:17:02;10.70;;;3.50;;
6823;SDS011;58633;49.470;11.004;2024-02-21T05:19:28;6.83;;;2.83;;
6823;SDS011;58633;49.470;11.004;2024-02-21T05:21:53;13.77;;;3.33;;
6823;SDS011;58633;49.470;11.004;2024-02-21T05:24:19;6.43;;;2.93;;
6823;SDS011;58633;49.470;11.004;2024-02-21T05:26:44;11.43;;;3.63;;
6823;SDS011;58633;49.470;11.004;2024-02-21T05:29:10;9.77;;;2.97;;
6823;SDS011;58633;49.470;11.004;2024-02-21T05:34:19;12.23;;;3.27;;
6823;SDS011;58633;49.470;11.004;2024-02-21T05:36:44;11.80;;;3.53;;
6823;SDS011;58633;49.470;11.004;2024-02-21T05:39:11;9.17;;;3.20;;
6823;SDS011;58633;49.470;11.004;2024-02-21T05:41:37;10.33;;;3.60;;
6823;SDS011;58633;49.470;11.004;2024-02-21T05:44:02;11.97;;;3.40;;
6823;SDS011;58633;49.470;11.004;2024-02-21T05:46:28;8.93;;;3.13;;
6823;SDS011;58633;49.470;11.004;2024-02-21T05:48:54;9.47;;;3.17;;
6823;SDS011;58633;49.470;11.004;2024-02-21T05:51:19;11.70;;;3.10;;
6823;SDS011;58633;49.470;11.004;2024-02-21T05:53:45;8.83;;;3.60;;
6823;SDS011;58633;49.470;11.004;2024-02-21T05:56:11;7.33;;;3.43;;
6823;SDS011;58633;49.470;11.004;2024-02-21T05:58:37;8.23;;;3.17;;
6823;SDS011;58633;49.470;11.004;2024-02-21T06:01:03;12.07;;;4.33;;
6823;SDS011;58633;49.470;11.004;2024-02-21T06:03:29;11.90;;;3.83;;
6823;SDS011;58633;49.470;11.004;2024-02-21T06:05:55;7.13;;;2.80;;
6823;SDS011;58633;49.470;11.004;2024-02-21T06:08:21;8.53;;;4.20;;
6823;SDS011;58633;49.470;11.004;2024-02-21T06:10:46;6.03;;;3.07;;
6823;SDS011;58633;49.470;11.004;2024-02-21T06:13:13;7.47;;;3.17;;
6823;SDS011;58633;49.470;11.004;2024-02-21T06:15:39;11.53;;;3.77;;
6823;SDS011;58633;49.470;11.004;2024-02-21T06:18:04;9.80;;;3.30;;
6823;SDS011;58633;49.470;11.004;2024-02-21T06:20:30;9.53;;;3.40;;
6823;SDS011;58633;49.470;11.004;2024-02-21T06:22:56;7.17;;;3.40;;
6823;SDS011;58633;49.470;11.004;2024-02-21T06:25:22;7.57;;;3.00;;
6823;SDS011;58633;49.470;11.004;2024-02-21T06:27:47;8.93;;;3.37;;
6823;SDS011;58633;49.470;11.004;2024-02-21T06:30:13;8.00;;;3.43;;
6823;SDS011;58633;49.470;11.004;2024-02-21T06:32:38;8.90;;;3.73;;
6823;SDS011;58633;49.470;11.004;2024-02-21T06:35:04;8.77;;;3.47;;
6823;SDS011;58633;49.470;11.004;2024-02-21T06:37:30;9.00;;;3.53;;
6823;SDS011;58633;49.470;11.004;2024-02-21T06:39:57;9.50;;;4.47;;
6823;SDS011;58633;49.470;11.004;2024-02-21T06:42:24;10.43;;;4.30;;
6823;SDS011;58633;49.470;11.004;2024-02-21T06:44:50;11.43;;;4.27;;
6823;SDS011;58633;49.470;11.004;2024-02-21T06:47:16;10.00;;;3.60;;
6823;SDS011;58633;49.470;11.004;2024-02-21T06:49:42;7.40;;;4.13;;
6823;SDS011;58633;49.470;11.004;2024-02-21T06:52:07;13.57;;;4.00;;
6823;SDS011;58633;49.470;11.004;2024-02-21T06:54:33;9.40;;;3.60;;
6823;SDS011;58633;49.470;11.004;2024-02-21T06:56:58;5.30;;;3.00;;
6823;SDS011;58633;49.470;11.004;2024-02-21T06:59:24;12.37;;;3.57;;
6823;SDS011;58633;49.470;11.004;2024-02-21T07:01:53;9.13;;;3.53;;
6823;SDS011;58633;49.470;11.004;2024-02-21T07:04:20;9.43;;;3.93;;
6823;SDS011;58633;49.470;11.004;2024-02-21T07:06:46;9.30;;;3.40;;
6823;SDS011;58633;49.470;11.004;2024-02-21T07:09:11;10.37;;;3.70;;
6823;SDS011;58633;49.470;11.004;2024-02-21T07:11:37;11.50;;;4.07;;
6823;SDS011;58633;49.470;11.004;2024-02-21T07:14:02;11.47;;;3.80;;
6823;SDS011;58633;49.470;11.004;2024-02-21T07:16:28;15.70;;;4.27;;
6823;SDS011;58633;49.470;11.004;2024-02-21T07:18:54;15.40;;;5.47;;
6823;SDS011;58633;49.470;11.004;2024-02-21T07:21:20;11.73;;;4.07;;
6823;SDS011;58633;49.470;11.004;2024-02-21T07:23:46;8.40;;;3.60;;
6823;SDS011;58633;49.470;11.004;2024-02-21T07:26:11;11.30;;;4.53;;
6823;SDS011;58633;49.470;11.004;2024-02-21T07:28:37;14.50;;;3.80;;
6823;SDS011;58633;49.470;11.004;2024-02-21T07:31:02;9.10;;;3.67;;
6823;SDS011;58633;49.470;11.004;2024-02-21T07:33:28;7.57;;;3.67;;
6823;SDS011;58633;49.470;11.004;2024-02-21T07:35:55;7.43;;;3.47;;
6823;SDS011;58633;49.470;11.004;2024-02-21T07:38:21;11.00;;;3.47;;
6823;SDS011;58633;49.470;11.004;2024-02-21T07:40:47;16.03;;;3.80;;
6823;SDS011;58633;49.470;11.004;2024-02-21T07:43:13;6.47;;;2.83;;
6823;SDS011;58633;49.470;11.004;2024-02-21T07:45:38;9.03;;;3.10;;
6823;SDS011;58633;49.470;11.004;2024-02-21T07:48:05;8.30;;;3.23;;
6823;SDS011;58633;49.470;11.004;2024-02-21T07:50:30;6.67;;;2.80;;
6823;SDS011;58633;49.470;11.004;2024-02-21T07:52:56;7.50;;;2.87;;
6823;SDS011;58633;49.470;11.004;2024-02-21T07:55:22;9.10;;;4.23;;
6823;SDS011;58633;49.470;11.004;2024-02-21T07:57:47;8.17;;;3.47;;
6823;SDS011;58633;49.470;11.004;2024-02-21T08:00:13;9.73;;;4.83;;
6823;SDS011;58633;49.470;11.004;2024-02-21T08:02:42;8.00;;;3.37;;
6823;SDS011;58633;49.470;11.004;2024-02-21T08:05:08;6.43;;;2.87;;
6823;SDS011;58633;49.470;11.004;2024-02-21T08:07:34;8.73;;;3.47;;
6823;SDS011;58633;49.470;11.004;2024-02-21T08:09:59;6.93;;;2.97;;
6823;SDS011;58633;49.470;11.004;2024-02-21T08:12:25;7.40;;;3.00;;
6823;SDS011;58633;49.470;11.004;2024-02-21T08:14:52;11.37;;;2.70;;
6823;SDS011;58633;49.470;11.004;2024-02-21T08:17:17;7.13;;;2.70;;
6823;SDS011;58633;49.470;11.004;2024-02-21T08:19:43;8.30;;;2.80;;
6823;SDS011;58633;49.470;11.004;2024-02-21T08:22:08;11.27;;;3.30;;
6823;SDS011;58633;49.470;11.004;2024-02-21T08:24:34;8.93;;;2.67;;
6823;SDS011;58633;49.470;11.004;2024-02-21T08:27:00;4.67;;;2.80;;
6823;SDS011;58633;49.470;11.004;2024-02-21T08:29:26;9.13;;;3.03;;
6823;SDS011;58633;49.470;11.004;2024-02-21T08:31:53;9.37;;;2.83;;
6823;SDS011;58633;49.470;11.004;2024-02-21T08:34:18;6.27;;;2.60;;
6823;SDS011;58633;49.470;11.004;2024-02-21T08:36:44;8.70;;;3.20;;
6823;SDS011;58633;49.470;11.004;2024-02-21T08:39:09;8.40;;;3.20;;
6823;SDS011;58633;49.470;11.004;2024-02-21T08:41:36;6.77;;;2.67;;
6823;SDS011;58633;49.470;11.004;2024-02-21T08:44:01;9.03;;;3.17;;
6823;SDS011;58633;49.470;11.004;2024-02-21T08:46:28;7.47;;;2.97;;
6823;SDS011;58633;49.470;11.004;2024-02-21T08:48:53;7.23;;;2.90;;
6823;SDS011;58633;49.470;11.004;2024-02-21T08:51:19;6.00;;;3.17;;
6823;SDS011;58633;49.470;11.004;2024-02-21T08:53:45;5.97;;;2.53;;
6823;SDS011;58633;49.470;11.004;2024-02-21T08:56:11;3.90;;;2.80;;
6823;SDS011;58633;49.470;11.004;2024-02-21T08:58:38;4.00;;;2.80;;
6823;SDS011;58633;49.470;11.004;2024-02-21T09:01:04;6.83;;;3.20;;
6823;SDS011;58633;49.470;11.004;2024-02-21T09:03:32;5.78;;;2.33;;
6823;SDS011;58633;49.470;11.004;2024-02-21T09:05:58;8.57;;;2.30;;
6823;SDS011;58633;49.470;11.004;2024-02-21T09:08:24;9.07;;;2.87;;
6823;SDS011;58633;49.470;11.004;2024-02-21T09:10:50;6.17;;;2.47;;
6823;SDS011;58633;49.470;11.004;2024-02-21T09:13:16;6.93;;;2.80;;
6823;SDS011;58633;49.470;11.004;2024-02-21T09:15:42;7.53;;;2.40;;
6823;SDS011;58633;49.470;11.004;2024-02-21T09:18:07;6.60;;;2.50;;
6823;SDS011;58633;49.470;11.004;2024-02-21T09:20:33;8.40;;;2.58;;
6823;SDS011;58633;49.470;11.004;2024-02-21T09:22:59;7.55;;;2.58;;
6823;SDS011;58633;49.470;11.004;2024-02-21T09:25:24;6.95;;;2.95;;
6823;SDS011;58633;49.470;11.004;2024-02-21T09:27:50;7.32;;;2.50;;
6823;SDS011;58633;49.470;11.004;2024-02-21T09:30:17;7.00;;;2.92;;
6823;SDS011;58633;49.470;11.004;2024-02-21T09:32:43;6.05;;;2.72;;
6823;SDS011;58633;49.470;11.004;2024-02-21T09:35:09;5.22;;;2.45;;
6823;SDS011;58633;49.470;11.004;2024-02-21T09:37:35;6.35;;;2.30;;
6823;SDS011;58633;49.470;11.004;2024-02-21T09:40:01;6.82;;;2.42;;
6823;SDS011;58633;49.470;11.004;2024-02-21T09:42:40;8.05;;;2.25;;
6823;SDS011;58633;49.470;11.004;2024-02-21T09:45:23;4.65;;;2.35;;
6823;SDS011;58633;49.470;11.004;2024-02-21T09:50:30;5.33;;;2.40;;
6823;SDS011;58633;49.470;11.004;2024-02-21T09:52:58;4.28;;;2.38;;
6823;SDS011;58633;49.470;11.004;2024-02-21T09:55:27;6.05;;;2.63;;
6823;SDS011;58633;49.470;11.004;2024-02-21T09:57:57;5.85;;;2.63;;
6823;SDS011;58633;49.470;11.004;2024-02-21T10:00:23;6.35;;;2.60;;
6823;SDS011;58633;49.470;11.004;2024-02-21T10:02:49;8.00;;;2.25;;
6823;SDS011;58633;49.470;11.004;2024-02-21T10:05:15;8.25;;;2.25;;
6823;SDS011;58633;49.470;11.004;2024-02-21T10:07:41;6.18;;;2.20;;
6823;SDS011;58633;49.470;11.004;2024-02-21T10:10:07;5.32;;;2.08;;
6823;SDS011;58633;49.470;11.004;2024-02-21T10:12:33;6.45;;;2.20;;
6823;SDS011;58633;49.470;11.004;2024-02-21T10:15:02;7.63;;;2.40;;
6823;SDS011;58633;49.470;11.004;2024-02-21T10:17:28;5.70;;;2.08;;
6823;SDS011;58633;49.470;11.004;2024-02-21T10:19:54;7.70;;;2.75;;
6823;SDS011;58633;49.470;11.004;2024-02-21T10:22:19;6.13;;;2.72;;
6823;SDS011;58633;49.470;11.004;2024-02-21T10:24:46;10.00;;;2.42;;
6823;SDS011;58633;49.470;11.004;2024-02-21T10:27:11;10.63;;;2.72;;
6823;SDS011;58633;49.470;11.004;2024-02-21T10:29:37;9.65;;;2.42;;
6823;SDS011;58633;49.470;11.004;2024-02-21T10:32:04;5.68;;;2.40;;
6823;SDS011;58633;49.470;11.004;2024-02-21T10:34:31;6.53;;;2.05;;
6823;SDS011;58633;49.470;11.004;2024-02-21T10:37:01;5.38;;;2.17;;
6823;SDS011;58633;49.470;11.004;2024-02-21T10:39:28;4.35;;;1.80;;
6823;SDS011;58633;49.470;11.004;2024-02-21T10:41:55;6.00;;;2.28;;
6823;SDS011;58633;49.470;11.004;2024-02-21T10:44:29;7.65;;;2.28;;
6823;SDS011;58633;49.470;11.004;2024-02-21T10:46:59;6.95;;;2.30;;
6823;SDS011;58633;49.470;11.004;2024-02-21T10:49:26;4.03;;;2.17;;
6823;SDS011;58633;49.470;11.004;2024-02-21T10:55:26;4.93;;;1.95;;
6823;SDS011;58633;49.470;11.004;2024-02-21T10:57:58;6.97;;;2.33;;
6823;SDS011;58633;49.470;11.004;2024-02-21T11:00:24;5.40;;;2.20;;
6823;SDS011;58633;49.470;11.004;2024-02-21T11:02:56;3.80;;;2.08;;
6823;SDS011;58633;49.470;11.004;2024-02-21T11:05:22;3.97;;;1.90;;
6823;SDS011;58633;49.470;11.004;2024-02-21T11:07:49;5.95;;;2.53;;
6823;SDS011;58633;49.470;11.004;2024-02-21T11:10:25;6.20;;;2.35;;
6823;SDS011;58633;49.470;11.004;2024-02-21T11:13:07;4.53;;;2.20;;
6823;SDS011;58633;49.470;11.004;2024-02-21T11:15:36;5.07;;;2.20;;
6823;SDS011;58633;49.470;11.004;2024-02-21T11:18:01;6.97;;;2.40;;
6823;SDS011;58633;49.470;11.004;2024-02-21T11:20:37;7.80;;;2.58;;
6823;SDS011;58633;49.470;11.004;2024-02-21T11:23:03;5.80;;;2.17;;
6823;SDS011;58633;49.470;11.004;2024-02-21T11:25:36;5.15;;;2.15;;
6823;SDS011;58633;49.470;11.004;2024-02-21T11:28:02;8.35;;;2.30;;
6823;SDS011;58633;49.470;11.004;2024-02-21T11:30:31;5.22;;;2.20;;
6823;SDS011;58633;49.470;11.004;2024-02-21T11:33:05;6.18;;;2.10;;
6823;SDS011;58633;49.470;11.004;2024-02-21T11:35:35;5.85;;;2.47;;
6823;SDS011;58633;49.470;11.004;2024-02-21T11:38:08;4.35;;;2.08;;
6823;SDS011;58633;49.470;11.004;2024-02-21T11:40:39;6.85;;;2.25;;
6823;SDS011;58633;49.470;11.004;2024-02-21T11:43:06;10.63;;;2.60;;
6823;SDS011;58633;49.470;11.004;2024-02-21T11:45:32;5.50;;;2.10;;
6823;SDS011;58633;49.470;11.004;2024-02-21T11:47:59;7.00;;;2.63;;
6823;SDS011;58633;49.470;11.004;2024-02-21T11:50:25;5.32;;;2.20;;
6823;SDS011;58633;49.470;11.004;2024-02-21T11:52:54;5.55;;;2.03;;
6823;SDS011;58633;49.470;11.004;2024-02-21T11:55:20;5.35;;;2.13;;
6823;SDS011;58633;49.470;11.004;2024-02-21T11:57:47;6.50;;;2.08;;
6823;SDS011;58633;49.470;11.004;2024-02-21T12:00:16;7.22;;;2.63;;
6823;SDS011;58633;49.470;11.004;2024-02-21T12:02:45;4.60;;;1.73;;
6823;SDS011;58633;49.470;11.004;2024-02-21T12:05:11;3.45;;;2.10;;
6823;SDS011;58633;49.470;11.004;2024-02-21T12:07:37;4.65;;;2.28;;
6823;SDS011;58633;49.470;11.004;2024-02-21T12:10:12;4.97;;;2.10;;
6823;SDS011;58633;49.470;11.004;2024-02-21T12:12:38;4.70;;;2.10;;
6823;SDS011;58633;49.470;11.004;2024-02-21T12:15:04;7.03;;;2.08;;
6823;SDS011;58633;49.470;11.004;2024-02-21T12:17:37;5.35;;;1.98;;
6823;SDS011;58633;49.470;11.004;2024-02-21T12:20:04;3.60;;;1.90;;
6823;SDS011;58633;49.470;11.004;2024-02-21T12:22:31;4.47;;;2.05;;
6823;SDS011;58633;49.470;11.004;2024-02-21T12:25:00;4.13;;;1.95;;
6823;SDS011;58633;49.470;11.004;2024-02-21T12:27:29;7.85;;;2.78;;
6823;SDS011;58633;49.470;11.004;2024-02-21T12:29:54;4.38;;;2.10;;
6823;SDS011;58633;49.470;11.004;2024-02-21T12:32:20;5.97;;;1.80;;
6823;SDS011;58633;49.470;11.004;2024-02-21T12:34:46;7.85;;;2.10;;
6823;SDS011;58633;49.470;11.004;2024-02-21T12:37:11;6.85;;;1.70;;
6823;SDS011;58633;49.470;11.004;2024-02-21T12:39:38;7.13;;;1.98;;
6823;SDS011;58633;49.470;11.004;2024-02-21T12:42:03;5.53;;;1.77;;
6823;SDS011;58633;49.470;11.004;2024-02-21T12:44:29;4.32;;;1.73;;
6823;SDS011;58633;49.470;11.004;2024-02-21T12:46:55;4.60;;;2.00;;
6823;SDS011;58633;49.470;11.004;2024-02-21T12:49:20;5.90;;;1.70;;
6823;SDS011;58633;49.470;11.004;2024-02-21T12:51:46;6.05;;;1.88;;
6823;SDS011;58633;49.470;11.004;2024-02-21T12:54:12;3.70;;;1.40;;
6823;SDS011;58633;49.470;11.004;2024-02-21T12:56:37;3.10;;;1.50;;
6823;SDS011;58633;49.470;11.004;2024-02-21T12:59:04;2.60;;;1.50;;
6823;SDS011;58633;49.470;11.004;2024-02-21T13:01:30;2.33;;;1.50;;
6823;SDS011;58633;49.470;11.004;2024-02-21T13:03:56;3.58;;;1.77;;
6823;SDS011;58633;49.470;11.004;2024-02-21T13:06:23;3.88;;;1.70;;
6823;SDS011;58633;49.470;11.004;2024-02-21T13:08:50;2.95;;;1.40;;
6823;SDS011;58633;49.470;11.004;2024-02-21T13:11:15;2.75;;;1.42;;
6823;SDS011;58633;49.470;11.004;2024-02-21T13:13:41;5.93;;;1.90;;
6823;SDS011;58633;49.470;11.004;2024-02-21T13:16:07;8.60;;;2.30;;
6823;SDS011;58633;49.470;11.004;2024-02-21T13:18:34;4.22;;;1.90;;
6823;SDS011;58633;49.470;11.004;2024-02-21T13:21:02;5.35;;;1.73;;
6823;SDS011;58633;49.470;11.004;2024-02-21T13:23:29;3.53;;;1.60;;
6823;SDS011;58633;49.470;11.004;2024-02-21T13:25:54;5.82;;;1.70;;
6823;SDS011;58633;49.470;11.004;2024-02-21T13:28:20;9.57;;;2.50;;
6823;SDS011;58633;49.470;11.004;2024-02-21T13:30:45;3.72;;;1.60;;
6823;SDS011;58633;49.470;11.004;2024-02-21T13:33:11;4.32;;;1.65;;
6823;SDS011;58633;49.470;11.004;2024-02-21T13:35:37;4.97;;;1.60;;
6823;SDS011;58633;49.470;11.004;2024-02-21T13:38:03;4.25;;;1.70;;
6823;SDS011;58633;49.470;11.004;2024-02-21T13:40:29;4.28;;;2.00;;
6823;SDS011;58633;49.470;11.004;2024-02-21T13:42:55;3.13;;;1.75;;
6823;SDS011;58633;49.470;11.004;2024-02-21T13:45:20;4.00;;;1.80;;
6823;SDS011;58633;49.470;11.004;2024-02-21T13:47:46;4.20;;;2.20;;
6823;SDS011;58633;49.470;11.004;2024-02-21T13:50:13;4.55;;;1.48;;
6823;SDS011;58633;49.470;11.004;2024-02-21T13:52:39;2.22;;;1.30;;
6823;SDS011;58633;49.470;11.004;2024-02-21T13:55:05;3.17;;;1.35;;
6823;SDS011;58633;49.470;11.004;2024-02-21T13:57:33;2.65;;;1.23;;
6823;SDS011;58633;49.470;11.004;2024-02-21T14:00:03;4.93;;;1.65;;
6823;SDS011;58633;49.470;11.004;2024-02-21T14:02:29;7.75;;;2.13;;
6823;SDS011;58633;49.470;11.004;2024-02-21T14:04:55;3.47;;;1.50;;
6823;SDS011;58633;49.470;11.004;2024-02-21T14:07:21;6.40;;;2.13;;
6823;SDS011;58633;49.470;11.004;2024-02-21T14:09:47;3.80;;;1.58;;
6823;SDS011;58633;49.470;11.004;2024-02-21T14:12:14;4.75;;;1.40;;
6823;SDS011;58633;49.470;11.004;2024-02-21T14:14:42;3.58;;;1.52;;
6823;SDS011;58633;49.470;11.004;2024-02-21T14:17:09;1.90;;;1.33;;
6823;SDS011;58633;49.470;11.004;2024-02-21T14:19:34;5.03;;;1.40;;
6823;SDS011;58633;49.470;11.004;2024-02-21T14:22:00;4.60;;;1.50;;
6823;SDS011;58633;49.470;11.004;2024-02-21T14:24:27;2.20;;;1.40;;
6823;SDS011;58633;49.470;11.004;2024-02-21T14:26:52;3.45;;;1.40;;
6823;SDS011;58633;49.470;11.004;2024-02-21T14:29:18;3.33;;;1.42;;
6823;SDS011;58633;49.470;11.004;2024-02-21T14:31:44;2.40;;;1.55;;
6823;SDS011;58633;49.470;11.004;2024-02-21T14:34:09;6.22;;;2.22;;
6823;SDS011;58633;49.470;11.004;2024-02-21T14:36:35;4.88;;;1.42;;
6823;SDS011;58633;49.470;11.004;2024-02-21T14:39:01;3.60;;;1.70;;
6823;SDS011;58633;49.470;11.004;2024-02-21T14:41:27;2.70;;;2.00;;
6823;SDS011;58633;49.470;11.004;2024-02-21T14:43:53;4.50;;;2.10;;
6823;SDS011;58633;49.470;11.004;2024-02-21T14:46:20;7.10;;;2.38;;
6823;SDS011;58633;49.470;11.004;2024-02-21T14:48:46;4.88;;;2.10;;